Time;durP1;ratioP1;P1;durP2;ratioP2;P2;SDS_P1;SDS_P2;PMS_P1;PMS_P2;Temp;Humidity;BMP_temperature;BMP_pressure;BME280_temperature;BME280_humidity;BME280_pressure;Samples;Min_cycle;Max_cycle;Signal;HPM_P1;HPM_P2
2022/05/26 00:01:38;;;;;;;1.60;1.50;;;12.50;99.90;;;;;;7410615;19;20320;-85
2022/05/26 00:04:04;;;;;;;1.40;1.30;;;12.40;99.90;;;;;;7414075;19;20332;-83
2022/05/26 00:06:30;;;;;;;1.27;1.27;;;12.40;99.90;;;;;;7409017;19;20336;-87
2022/05/26 00:08:56;;;;;;;1.35;1.23;;;12.40;99.90;;;;;;7413717;19;20328;-89
2022/05/26 00:11:25;;;;;;;1.35;1.25;;;12.40;99.90;;;;;;7410980;19;20909;-88
2022/05/26 00:13:51;;;;;;;1.70;1.60;;;12.40;99.90;;;;;;7413018;19;20769;-86
2022/05/26 00:16:18;;;;;;;1.40;1.30;;;12.40;99.90;;;;;;7409249;19;20312;-83
2022/05/26 00:18:44;;;;;;;1.50;1.40;;;12.40;99.90;;;;;;7412597;19;20340;-86
2022/05/26 00:21:09;;;;;;;1.58;1.48;;;12.50;99.90;;;;;;7406110;19;20341;-89
2022/05/26 00:23:35;;;;;;;1.60;1.50;;;12.40;99.90;;;;;;7415974;19;20436;-87
2022/05/26 00:26:00;;;;;;;1.43;1.33;;;12.50;99.90;;;;;;7413656;19;20681;-87
2022/05/26 00:28:26;;;;;;;2.20;1.40;;;12.40;99.90;;;;;;7416262;19;20333;-88
2022/05/26 00:30:53;;;;;;;1.40;1.30;;;12.40;99.90;;;;;;7411475;19;20368;-88
2022/05/26 00:33:19;;;;;;;1.50;1.40;;;12.40;99.90;;;;;;7417805;19;20373;-83
2022/05/26 00:35:44;;;;;;;1.40;1.30;;;12.50;99.90;;;;;;7417853;19;20351;-89
2022/05/26 00:38:11;;;;;;;1.60;1.40;;;12.50;99.90;;;;;;7414993;19;20356;-89
2022/05/26 00:40:37;;;;;;;1.40;1.30;;;12.60;99.90;;;;;;7413754;19;20340;-86
2022/05/26 00:43:03;;;;;;;1.77;1.63;;;12.60;99.90;;;;;;7415345;19;20328;-87
2022/05/26 00:45:33;;;;;;;1.60;1.50;;;12.70;99.90;;;;;;7412144;19;20327;-89
2022/05/26 00:47:58;;;;;;;1.50;1.40;;;12.70;99.90;;;;;;7411371;19;20336;-83
2022/05/26 00:50:26;;;;;;;1.57;1.37;;;12.70;99.90;;;;;;7410477;19;20316;-85
2022/05/26 00:53:06;;;;;;;1.13;1.10;;;12.80;99.90;;;;;;7411995;19;20340;-87
2022/05/26 00:55:34;;;;;;;2.03;1.20;;;12.80;99.90;;;;;;7415585;19;20362;-88
2022/05/26 00:58:11;;;;;;;1.13;1.08;;;12.90;99.90;;;;;;7414584;19;20329;-85
2022/05/26 01:00:37;;;;;;;1.23;1.20;;;12.90;99.90;;;;;;7412491;19;20361;-84
2022/05/26 01:03:24;;;;;;;1.38;1.27;;;13.00;99.90;;;;;;7415895;19;20308;-89
2022/05/26 01:06:11;;;;;;;1.23;1.17;;;13.00;99.90;;;;;;7309741;19;2004360;-88
2022/05/26 01:08:52;;;;;;;1.27;1.17;;;13.00;99.90;;;;;;7414850;19;20341;-87
2022/05/26 01:11:18;;;;;;;1.27;1.13;;;13.00;99.90;;;;;;7411297;19;20316;-84
2022/05/26 01:13:54;;;;;;;1.20;1.10;;;13.10;99.90;;;;;;7412042;19;20366;-88
2022/05/26 01:16:42;;;;;;;1.23;1.13;;;13.00;99.90;;;;;;7409726;19;20351;-86
2022/05/26 01:19:07;;;;;;;0.95;0.90;;;13.00;99.90;;;;;;7407082;19;20386;-89
2022/05/26 01:21:36;;;;;;;1.27;1.10;;;13.20;99.90;;;;;;7393098;19;20349;-86
2022/05/26 01:24:45;;;;;;;0.90;0.90;;;13.10;99.90;;;;;;7398558;19;20352;-87
2022/05/26 01:27:31;;;;;;;1.00;1.00;;;13.10;99.90;;;;;;7196638;19;2004590;-87
2022/05/26 01:30:18;;;;;;;1.00;1.00;;;13.10;99.90;;;;;;7310107;19;2006127;-86
2022/05/26 01:33:04;;;;;;;1.10;1.10;;;13.20;99.90;;;;;;7310141;19;2004354;-86
2022/05/26 01:35:35;;;;;;;1.17;1.00;;;13.20;99.90;;;;;;7413824;19;20936;-86
2022/05/26 01:38:16;;;;;;;0.95;0.95;;;13.20;99.90;;;;;;7410092;19;20337;-89
2022/05/26 01:41:07;;;;;;;1.73;0.98;;;13.20;99.90;;;;;;7412018;19;20750;-87
2022/05/26 01:44:01;;;;;;;1.20;1.10;;;13.20;99.90;;;;;;7311559;19;2004435;-85
2022/05/26 01:46:38;;;;;;;1.13;1.13;;;13.20;99.90;;;;;;7412836;19;20344;-87
2022/05/26 01:49:39;;;;;;;1.67;1.17;;;13.20;99.90;;;;;;7413756;19;21039;-87
2022/05/26 01:52:15;;;;;;;1.25;1.10;;;13.20;99.90;;;;;;7309447;19;2004758;-85
2022/05/26 01:55:11;;;;;;;1.17;1.10;;;13.20;99.90;;;;;;7412414;19;20337;-83
2022/05/26 01:57:56;;;;;;;1.03;1.03;;;13.30;99.90;;;;;;7308197;19;2004204;-86
2022/05/26 02:00:21;;;;;;;1.10;1.10;;;13.30;99.90;;;;;;7307681;19;2005667;-86
2022/05/26 02:02:53;;;;;;;1.20;1.10;;;13.30;99.90;;;;;;7408788;19;20328;-87
2022/05/26 02:05:21;;;;;;;0.93;0.93;;;13.30;99.90;;;;;;7411118;19;20633;-88
2022/05/26 02:07:55;;;;;;;1.20;1.10;;;13.40;99.90;;;;;;7409703;19;20448;-86
2022/05/26 02:10:32;;;;;;;4.30;1.10;;;13.40;99.90;;;;;;7406947;19;20293;-90
2022/05/26 02:13:07;;;;;;;1.43;1.07;;;13.40;99.90;;;;;;7412656;19;20341;-87
2022/05/26 02:15:39;;;;;;;0.95;0.90;;;13.40;99.90;;;;;;7413837;19;20313;-88
2022/05/26 02:18:15;;;;;;;1.00;1.00;;;13.50;99.90;;;;;;7394969;19;20312;-89
2022/05/26 02:20:44;;;;;;;1.00;1.00;;;13.50;99.90;;;;;;7317965;19;2004353;-88
2022/05/26 02:23:31;;;;;;;1.23;1.05;;;13.50;99.90;;;;;;7421247;19;20352;-88
2022/05/26 02:25:57;;;;;;;1.10;1.10;;;13.50;99.90;;;;;;7313760;19;2018417;-86
2022/05/26 02:28:22;;;;;;;1.63;1.37;;;13.50;99.90;;;;;;7420813;19;20357;-89
2022/05/26 02:30:48;;;;;;;1.20;1.10;;;13.50;99.90;;;;;;7423798;19;20325;-85
2022/05/26 02:33:14;;;;;;;1.60;1.10;;;13.50;99.90;;;;;;7424422;19;20288;-90
2022/05/26 02:35:42;;;;;;;1.20;1.10;;;13.60;99.90;;;;;;7421623;19;20332;-91
2022/05/26 02:38:14;;;;;;;1.60;1.20;;;13.60;99.90;;;;;;7421934;19;20332;-89
2022/05/26 02:40:41;;;;;;;1.52;1.10;;;13.60;99.90;;;;;;7419981;19;20332;-87
2022/05/26 02:43:28;;;;;;;1.20;1.10;;;13.60;99.90;;;;;;7417643;19;20348;-87
2022/05/26 02:46:31;;;;;;;1.10;1.10;;;13.60;99.90;;;;;;7314213;19;2019544;-87
2022/05/26 02:49:30;;;;;;;1.20;1.10;;;13.60;99.90;;;;;;7317017;19;2004338;-91
2022/05/26 02:52:09;;;;;;;2.20;1.20;;;13.60;99.90;;;;;;7314902;19;2004045;-90
2022/05/26 02:55:16;;;;;;;1.00;1.00;;;13.70;99.90;;;;;;7419031;19;20360;-86
2022/05/26 02:58:13;;;;;;;1.40;1.30;;;13.70;99.90;;;;;;7313956;19;2019693;-89
2022/05/26 03:00:49;;;;;;;1.20;1.10;;;13.70;99.90;;;;;;7313117;19;2004366;-87
2022/05/26 03:03:29;;;;;;;1.60;1.13;;;13.70;99.90;;;;;;7316336;19;2004523;-89
2022/05/26 03:06:14;;;;;;;2.67;1.10;;;13.70;99.90;;;;;;7318752;19;2004182;-91
2022/05/26 03:08:40;;;;;;;1.20;1.10;;;13.70;99.90;;;;;;7319625;19;2004347;-87
2022/05/26 03:11:08;;;;;;;1.23;1.20;;;13.70;99.90;;;;;;7421631;19;20377;-90
2022/05/26 03:13:34;;;;;;;1.27;1.10;;;13.70;99.90;;;;;;7420777;19;20349;-92
2022/05/26 03:16:00;;;;;;;1.00;1.00;;;13.70;99.90;;;;;;7417418;19;20373;-86
2022/05/26 03:18:26;;;;;;;1.30;1.20;;;13.70;99.90;;;;;;7420920;19;20308;-89
2022/05/26 03:20:51;;;;;;;1.17;1.00;;;13.70;99.90;;;;;;7419176;19;20381;-91
2022/05/26 03:23:17;;;;;;;1.83;1.17;;;13.80;99.90;;;;;;7421309;19;20312;-85
2022/05/26 03:25:45;;;;;;;1.13;1.10;;;13.80;99.90;;;;;;7419426;19;20329;-88
2022/05/26 03:28:11;;;;;;;1.80;1.20;;;13.80;99.90;;;;;;7419850;19;20328;-88
2022/05/26 03:30:38;;;;;;;0.93;0.93;;;13.80;99.90;;;;;;7419264;19;21169;-86
2022/05/26 03:33:04;;;;;;;1.23;1.00;;;13.80;99.90;;;;;;7419085;19;20333;-87
2022/05/26 03:40:58;;;;;;;1.20;1.10;;;13.90;99.90;;;;;;7421586;19;20340;-87
2022/05/26 03:43:36;;;;;;;1.30;1.20;;;13.90;99.90;;;;;;7421311;19;20355;-88
2022/05/26 03:46:02;;;;;;;1.37;1.13;;;14.00;99.90;;;;;;7416288;19;20377;-88
2022/05/26 03:48:28;;;;;;;1.10;1.10;;;14.00;99.90;;;;;;7419507;19;20348;-88
2022/05/26 03:50:53;;;;;;;2.90;1.50;;;14.00;99.90;;;;;;7417617;19;20353;-89
2022/05/26 03:53:19;;;;;;;1.27;1.20;;;14.00;99.90;;;;;;7417825;19;20345;-90
2022/05/26 03:55:45;;;;;;;1.33;1.23;;;14.10;99.90;;;;;;7402263;19;20344;-88
2022/05/26 03:58:10;;;;;;;1.50;1.40;;;14.10;99.90;;;;;;7413737;19;20341;-87
2022/05/26 04:00:36;;;;;;;2.07;1.43;;;14.10;99.90;;;;;;7417322;19;20351;-89
2022/05/26 04:03:02;;;;;;;1.30;1.20;;;14.10;99.90;;;;;;7419189;19;20326;-88
2022/05/26 04:05:28;;;;;;;1.20;1.10;;;14.20;99.90;;;;;;7417304;19;20345;-88
2022/05/26 04:07:53;;;;;;;1.20;1.10;;;14.20;99.90;;;;;;7414209;19;20754;-89
2022/05/26 04:10:19;;;;;;;1.20;1.10;;;14.20;99.90;;;;;;7415953;19;20369;-86
2022/05/26 04:12:45;;;;;;;0.97;0.97;;;14.30;99.90;;;;;;7417991;19;20363;-91
2022/05/26 04:15:12;;;;;;;1.17;1.08;;;14.30;99.90;;;;;;7419219;19;20321;-88
2022/05/26 04:17:37;;;;;;;2.17;1.13;;;14.30;99.90;;;;;;7415283;19;20329;-91
2022/05/26 04:20:04;;;;;;;1.00;1.00;;;14.50;99.90;;;;;;7419828;19;20459;-91
2022/05/26 04:22:30;;;;;;;1.20;1.10;;;14.40;99.90;;;;;;7420533;19;20305;-87
2022/05/26 04:24:58;;;;;;;0.90;0.90;;;14.30;99.90;;;;;;7418152;19;20776;-89
2022/05/26 04:27:28;;;;;;;1.23;1.13;;;14.40;99.90;;;;;;7418240;19;20325;-89
2022/05/26 04:29:54;;;;;;;1.40;1.05;;;14.40;99.90;;;;;;7419159;19;20315;-89
2022/05/26 04:32:21;;;;;;;1.10;1.00;;;14.50;99.90;;;;;;7415928;19;20362;-87
2022/05/26 04:34:48;;;;;;;1.05;0.95;;;14.60;99.90;;;;;;7418734;19;20325;-90
2022/05/26 04:37:14;;;;;;;1.20;1.10;;;14.60;99.90;;;;;;7418887;19;20357;-90
2022/05/26 04:39:40;;;;;;;0.90;0.90;;;14.70;99.90;;;;;;7415064;19;20333;-90
2022/05/26 04:42:06;;;;;;;1.37;1.00;;;14.70;99.90;;;;;;7412976;19;20345;-90
2022/05/26 04:44:39;;;;;;;0.93;0.93;;;14.70;99.90;;;;;;7417428;19;20327;-88
2022/05/26 04:47:04;;;;;;;1.10;1.00;;;14.80;99.90;;;;;;7417088;19;20329;-90
2022/05/26 04:49:30;;;;;;;2.60;1.00;;;14.80;99.90;;;;;;7410321;19;20316;-89
2022/05/26 04:51:56;;;;;;;1.27;1.10;;;14.90;99.90;;;;;;7406332;19;20347;-87
2022/05/26 04:54:21;;;;;;;0.97;0.97;;;15.00;99.90;;;;;;7405740;19;20351;-87
2022/05/26 04:56:47;;;;;;;2.60;1.05;;;15.00;99.90;;;;;;7401652;19;20340;-87
2022/05/26 04:59:13;;;;;;;1.13;1.10;;;15.10;99.90;;;;;;7406493;19;20345;-85
2022/05/26 05:01:38;;;;;;;0.98;0.98;;;15.10;99.90;;;;;;7399936;19;20353;-88
2022/05/26 05:04:04;;;;;;;1.70;0.90;;;15.20;99.90;;;;;;7403661;19;20348;-84
2022/05/26 05:06:30;;;;;;;1.40;1.00;;;15.20;99.90;;;;;;7401387;19;20323;-87
2022/05/26 05:08:55;;;;;;;1.08;0.98;;;15.20;99.90;;;;;;7405218;19;20353;-90
2022/05/26 05:11:21;;;;;;;1.97;0.97;;;15.30;99.90;;;;;;7403023;19;20309;-84
2022/05/26 05:13:46;;;;;;;0.85;0.85;;;15.40;99.90;;;;;;7406189;19;20352;-86
2022/05/26 05:16:37;;;;;;;0.90;0.90;;;15.40;99.90;;;;;;7406896;19;20381;-86
2022/05/26 05:19:02;;;;;;;0.90;0.90;;;15.50;99.90;;;;;;7406011;19;20818;-87
2022/05/26 05:21:33;;;;;;;0.80;0.80;;;15.60;99.90;;;;;;7401864;19;20336;-85
2022/05/26 05:24:02;;;;;;;1.57;0.93;;;15.70;99.90;;;;;;7408892;19;20346;-88
2022/05/26 05:26:28;;;;;;;1.20;0.90;;;15.70;99.90;;;;;;7409129;19;20316;-86
2022/05/26 05:28:58;;;;;;;0.80;0.80;;;15.80;99.90;;;;;;7412114;19;20377;-85
2022/05/26 05:31:33;;;;;;;1.35;1.10;;;15.90;99.90;;;;;;7407374;19;20353;-86
2022/05/26 05:34:10;;;;;;;0.82;0.82;;;15.90;99.90;;;;;;7409132;19;20344;-89
2022/05/26 05:36:36;;;;;;;1.15;1.05;;;15.90;99.90;;;;;;7303560;19;2004357;-86
2022/05/26 05:39:02;;;;;;;1.57;1.13;;;16.10;99.90;;;;;;7405895;19;20336;-87
2022/05/26 05:41:28;;;;;;;0.80;0.80;;;16.10;99.90;;;;;;7404055;19;20337;-87
2022/05/26 05:43:55;;;;;;;1.10;1.00;;;16.10;99.90;;;;;;7409783;19;20308;-82
2022/05/26 05:46:20;;;;;;;1.10;1.00;;;16.20;99.90;;;;;;7406353;19;20347;-86
2022/05/26 05:48:46;;;;;;;3.03;1.00;;;16.20;99.90;;;;;;7403584;19;20345;-84
2022/05/26 05:51:12;;;;;;;0.80;0.80;;;16.20;99.90;;;;;;7407452;19;20285;-90
2022/05/26 05:53:38;;;;;;;0.82;0.82;;;16.20;99.90;;;;;;7407994;19;20340;-85
2022/05/26 05:56:04;;;;;;;1.10;0.90;;;16.30;99.90;;;;;;7404147;19;20349;-86
2022/05/26 05:58:33;;;;;;;1.00;1.00;;;16.30;99.90;;;;;;7407700;19;20360;-88
2022/05/26 06:00:59;;;;;;;0.90;0.90;;;16.50;99.90;;;;;;7409228;19;20337;-89
2022/05/26 06:03:32;;;;;;;0.80;0.80;;;16.40;99.90;;;;;;7414087;19;20363;-90
2022/05/26 06:06:01;;;;;;;1.08;0.98;;;16.50;99.90;;;;;;7410306;19;20345;-87
2022/05/26 06:08:27;;;;;;;0.90;0.90;;;16.50;99.90;;;;;;7412778;19;20320;-89
2022/05/26 06:10:53;;;;;;;1.23;1.10;;;16.50;99.90;;;;;;7407617;19;20661;-88
2022/05/26 06:13:19;;;;;;;1.10;1.00;;;16.60;99.90;;;;;;7406386;19;20349;-82
2022/05/26 06:15:47;;;;;;;1.00;1.00;;;16.80;99.90;;;;;;7403151;19;20336;-87
2022/05/26 06:18:19;;;;;;;1.00;0.90;;;16.90;99.90;;;;;;7403603;19;20345;-86
2022/05/26 06:20:45;;;;;;;1.00;1.00;;;16.80;99.90;;;;;;7400699;19;20329;-85
2022/05/26 06:23:10;;;;;;;2.20;1.20;;;17.00;99.90;;;;;;7403043;19;20289;-89
2022/05/26 06:25:36;;;;;;;1.02;1.00;;;17.10;99.90;;;;;;7405695;19;20341;-82
2022/05/26 06:30:51;;;;;;;1.04;1.00;;;16.90;99.90;;;;;;6117872;19;10001582;-86
2022/05/26 06:38:45;;;;;;;1.20;1.10;;;17.30;99.90;;;;;;7394106;19;20344;-80
2022/05/26 06:43:56;;;;;;;0.80;0.80;;;17.40;99.90;;;;;;7399564;19;20336;-84
2022/05/26 06:46:22;;;;;;;1.00;1.00;;;17.60;99.90;;;;;;7398199;19;20344;-85
2022/05/26 06:48:48;;;;;;;1.30;1.20;;;17.70;99.90;;;;;;7402289;19;20344;-87
2022/05/26 06:51:14;;;;;;;3.75;1.10;;;17.90;99.90;;;;;;7400034;19;20364;-85
2022/05/26 06:53:39;;;;;;;1.20;1.00;;;18.00;99.90;;;;;;7410375;19;20337;-89
2022/05/26 06:56:05;;;;;;;1.80;1.00;;;18.00;99.90;;;;;;7400055;19;20436;-85
2022/05/26 06:58:31;;;;;;;1.00;1.00;;;17.70;99.90;;;;;;7401641;19;20400;-85
2022/05/26 07:00:57;;;;;;;0.80;0.80;;;18.00;99.90;;;;;;7404544;19;20344;-90
2022/05/26 07:03:22;;;;;;;1.07;1.00;;;18.30;99.90;;;;;;7404863;19;20345;-88
2022/05/26 07:05:49;;;;;;;1.23;1.13;;;18.20;99.90;;;;;;7409779;19;20367;-86
2022/05/26 07:08:15;;;;;;;1.65;1.00;;;18.00;99.90;;;;;;7410591;19;20391;-83
2022/05/26 07:10:40;;;;;;;1.20;1.00;;;18.30;99.90;;;;;;7408566;19;20372;-87
2022/05/26 07:13:06;;;;;;;1.03;0.93;;;18.40;99.90;;;;;;7408703;19;20373;-85
2022/05/26 07:15:33;;;;;;;1.20;1.10;;;18.50;99.90;;;;;;7411701;19;20336;-86
2022/05/26 07:17:58;;;;;;;1.17;1.08;;;18.70;99.90;;;;;;7407005;19;20352;-88
2022/05/26 07:20:24;;;;;;;0.90;0.90;;;18.60;99.90;;;;;;7408310;19;20356;-87
2022/05/26 07:22:50;;;;;;;1.90;1.10;;;18.90;99.90;;;;;;7406403;19;20368;-87
2022/05/26 07:25:15;;;;;;;1.13;1.03;;;19.20;99.90;;;;;;7406574;19;20356;-83
2022/05/26 07:27:42;;;;;;;1.10;1.10;;;18.80;99.90;;;;;;7403297;19;20368;-85
2022/05/26 07:30:10;;;;;;;1.30;1.10;;;18.80;99.90;;;;;;7407428;19;20361;-87
2022/05/26 07:32:35;;;;;;;1.02;1.00;;;18.80;99.90;;;;;;7406770;19;21123;-84
2022/05/26 07:35:01;;;;;;;1.50;1.15;;;18.90;99.90;;;;;;7408175;19;20385;-86
2022/05/26 07:42:55;;;;;;;1.70;1.40;;;18.80;99.90;;;;;;7408193;19;20360;-88
2022/05/26 07:45:21;;;;;;;3.53;1.30;;;19.10;99.90;;;;;;7413403;19;20619;-88
2022/05/26 07:47:47;;;;;;;1.70;1.30;;;19.00;99.90;;;;;;7411017;19;20396;-90
2022/05/26 07:50:19;;;;;;;2.90;1.30;;;19.00;99.90;;;;;;7412936;19;20371;-85
2022/05/26 07:52:46;;;;;;;1.25;1.17;;;19.00;99.90;;;;;;7411142;19;20364;-88
2022/05/26 07:55:12;;;;;;;2.45;1.40;;;18.90;99.90;;;;;;7416663;19;20382;-88
2022/05/26 07:57:38;;;;;;;1.45;1.20;;;19.00;99.90;;;;;;7414609;19;20757;-90
2022/05/26 08:00:04;;;;;;;2.30;1.40;;;19.10;99.90;;;;;;7413068;19;20401;-88
2022/05/26 08:02:37;;;;;;;1.40;1.30;;;18.60;99.90;;;;;;7410079;19;20349;-87
2022/05/26 08:05:05;;;;;;;1.30;1.20;;;18.80;99.90;;;;;;7409774;19;20344;-84
2022/05/26 08:07:30;;;;;;;3.35;1.42;;;18.80;99.90;;;;;;7409361;19;21039;-87
2022/05/26 08:09:56;;;;;;;1.10;1.10;;;18.60;99.90;;;;;;7414647;19;20345;-86
2022/05/26 08:12:22;;;;;;;2.70;1.20;;;18.70;99.90;;;;;;7400517;19;20789;-87
2022/05/26 08:14:56;;;;;;;1.40;1.30;;;19.00;99.90;;;;;;6530685;19;10001116;-86
2022/05/26 08:17:22;;;;;;;3.17;1.40;;;19.10;99.90;;;;;;7404420;19;20356;-85
2022/05/26 08:19:48;;;;;;;1.20;1.10;;;19.10;99.90;;;;;;7420456;19;20352;-88
2022/05/26 08:22:14;;;;;;;3.60;1.40;;;18.90;99.90;;;;;;7413613;19;20356;-88
2022/05/26 08:24:39;;;;;;;1.17;1.13;;;19.00;99.90;;;;;;7415173;19;20361;-89
2022/05/26 08:27:05;;;;;;;3.22;1.30;;;18.80;99.90;;;;;;7413576;19;20428;-88
2022/05/26 08:29:31;;;;;;;1.10;1.00;;;19.00;99.90;;;;;;7415705;19;20383;-90
2022/05/26 08:31:57;;;;;;;1.10;1.10;;;19.00;99.90;;;;;;7406785;19;20650;-89
2022/05/26 08:34:22;;;;;;;1.70;1.30;;;19.20;99.90;;;;;;7414850;19;20660;-86
2022/05/26 08:36:48;;;;;;;2.10;1.10;;;19.10;99.90;;;;;;7410913;19;20347;-88
2022/05/26 08:39:14;;;;;;;1.50;1.30;;;19.30;99.90;;;;;;7410099;19;20381;-89
2022/05/26 08:41:42;;;;;;;1.20;1.10;;;19.20;99.90;;;;;;7404848;19;20348;-87
2022/05/26 08:44:12;;;;;;;1.00;1.00;;;19.40;99.90;;;;;;7413962;19;20400;-86
2022/05/26 08:47:03;;;;;;;1.10;1.10;;;19.50;99.90;;;;;;7409912;19;20404;-85
2022/05/26 08:49:40;;;;;;;1.90;1.27;;;19.80;99.90;;;;;;7414347;19;20360;-92
2022/05/26 08:52:08;;;;;;;1.33;1.10;;;19.60;99.90;;;;;;7410398;19;20404;-89
2022/05/26 08:54:47;;;;;;;1.50;1.10;;;19.70;99.90;;;;;;7417057;19;20375;-91
2022/05/26 08:57:14;;;;;;;1.10;1.10;;;19.40;99.90;;;;;;7415475;19;20413;-88
2022/05/26 08:59:42;;;;;;;1.60;1.10;;;19.60;99.90;;;;;;7419366;19;20400;-86
2022/05/26 09:02:24;;;;;;;3.65;1.35;;;20.00;99.90;;;;;;7411881;19;20356;-88
2022/05/26 09:04:50;;;;;;;2.53;1.30;;;20.20;99.90;;;;;;7417879;19;20445;-89
2022/05/26 09:12:59;;;;;;;1.77;1.20;;;20.30;99.90;;;;;;7417675;19;20400;-90
2022/05/26 09:15:25;;;;;;;1.38;1.27;;;20.10;99.90;;;;;;7417435;19;20371;-90
2022/05/26 09:17:51;;;;;;;1.20;1.20;;;20.20;99.90;;;;;;7418424;19;20369;-89
2022/05/26 09:20:33;;;;;;;1.30;1.20;;;20.20;99.90;;;;;;7420165;19;20384;-87
2022/05/26 09:23:13;;;;;;;1.40;1.30;;;20.00;99.90;;;;;;7417707;19;20428;-88
2022/05/26 09:25:44;;;;;;;1.00;1.00;;;20.00;99.90;;;;;;7417603;19;20380;-90
2022/05/26 09:28:09;;;;;;;1.73;1.15;;;20.00;99.90;;;;;;7418629;19;20352;-88
2022/05/26 09:30:35;;;;;;;1.30;1.00;;;20.40;99.90;;;;;;7417171;19;20971;-85
2022/05/26 09:33:01;;;;;;;1.10;1.10;;;20.60;99.90;;;;;;7417747;19;20345;-88
2022/05/26 09:35:28;;;;;;;2.40;1.20;;;21.00;99.90;;;;;;7414897;19;20356;-88
2022/05/26 09:38:02;;;;;;;1.85;1.10;;;21.30;99.90;;;;;;7413060;19;20389;-87
2022/05/26 09:40:30;;;;;;;1.17;1.08;;;21.00;99.90;;;;;;7416801;19;20340;-90
2022/05/26 09:43:06;;;;;;;2.03;1.25;;;20.70;99.90;;;;;;7417643;19;20357;-88
2022/05/26 09:45:56;;;;;;;2.33;1.10;;;20.30;99.90;;;;;;7417884;19;20604;-90
2022/05/26 09:48:30;;;;;;;1.55;1.00;;;20.90;99.90;;;;;;7414026;19;20368;-85
2022/05/26 09:51:02;;;;;;;1.48;1.20;;;21.00;99.90;;;;;;7413001;19;20345;-90
2022/05/26 09:53:30;;;;;;;1.23;1.10;;;20.60;99.90;;;;;;7421523;19;20452;-89
2022/05/26 09:55:56;;;;;;;2.10;1.42;;;20.30;99.90;;;;;;7413452;19;20368;-88
2022/05/26 09:58:34;;;;;;;1.10;1.10;;;20.40;99.90;;;;;;7415832;19;20360;-88
2022/05/26 10:01:06;;;;;;;1.20;1.10;;;20.40;99.90;;;;;;7406442;19;20336;-87
2022/05/26 10:03:58;;;;;;;1.20;1.10;;;20.60;99.90;;;;;;7408168;19;20443;-88
2022/05/26 10:06:35;;;;;;;1.45;1.10;;;21.00;99.90;;;;;;7411686;19;20469;-88
2022/05/26 10:09:09;;;;;;;1.55;1.30;;;21.60;99.90;;;;;;7417247;19;20372;-89
2022/05/26 10:11:40;;;;;;;1.80;1.20;;;21.70;99.90;;;;;;7408943;19;20418;-88
2022/05/26 10:14:16;;;;;;;1.20;1.10;;;22.50;99.90;;;;;;7418803;19;20355;-90
2022/05/26 10:16:54;;;;;;;1.13;1.13;;;22.80;99.90;;;;;;7413907;19;20344;-89
2022/05/26 10:19:34;;;;;;;1.10;1.10;;;22.80;99.90;;;;;;7418132;19;20336;-89
2022/05/26 10:22:09;;;;;;;1.00;1.00;;;23.00;99.90;;;;;;7412891;19;20352;-89
2022/05/26 10:25:04;;;;;;;2.00;1.27;;;22.40;99.90;;;;;;7418965;19;20363;-87
2022/05/26 10:28:04;;;;;;;1.52;1.20;;;22.20;99.90;;;;;;7417269;19;20369;-88
2022/05/26 10:30:44;;;;;;;2.15;1.20;;;21.60;99.90;;;;;;7415055;19;20840;-90
2022/05/26 10:33:44;;;;;;;1.50;1.30;;;22.20;99.90;;;;;;7415054;19;20360;-91
2022/05/26 10:36:23;;;;;;;1.60;1.30;;;22.30;99.90;;;;;;7413844;19;20386;-90
2022/05/26 10:39:12;;;;;;;1.90;1.70;;;22.30;99.90;;;;;;7417495;19;20361;-84
2022/05/26 10:41:40;;;;;;;1.60;1.20;;;22.60;99.90;;;;;;7405331;19;20389;-85
2022/05/26 10:44:21;;;;;;;1.65;1.40;;;22.30;99.90;;;;;;7408808;19;20892;-79
2022/05/26 10:46:57;;;;;;;1.05;1.02;;;22.30;99.90;;;;;;7410965;19;20725;-86
2022/05/26 10:49:34;;;;;;;1.13;1.13;;;21.60;99.90;;;;;;7415052;19;20352;-86
2022/05/26 10:52:07;;;;;;;1.67;1.33;;;21.60;99.90;;;;;;7409501;19;20389;-87
2022/05/26 10:54:45;;;;;;;1.70;1.20;;;21.20;99.90;;;;;;7417457;19;20360;-87
2022/05/26 10:57:30;;;;;;;1.05;1.02;;;21.10;99.90;;;;;;7412665;19;20439;-86
2022/05/26 11:00:07;;;;;;;1.10;1.10;;;20.70;99.90;;;;;;7419856;19;20432;-85
2022/05/26 11:03:00;;;;;;;1.27;1.17;;;20.60;99.90;;;;;;7406855;19;20348;-82
2022/05/26 11:05:44;;;;;;;1.83;1.30;;;20.40;99.90;;;;;;7413215;19;20360;-85
2022/05/26 11:08:24;;;;;;;1.63;1.40;;;20.20;99.90;;;;;;7418182;19;20460;-87
2022/05/26 11:10:54;;;;;;;1.50;1.33;;;20.20;99.90;;;;;;7407693;19;20367;-85
2022/05/26 11:13:36;;;;;;;1.33;1.23;;;20.60;99.90;;;;;;7414179;19;20368;-85
2022/05/26 11:19:22;;;;;;;1.40;1.30;;;21.70;99.90;;;;;;7415752;19;20373;-88
2022/05/26 11:21:49;;;;;;;1.30;1.20;;;21.60;99.90;;;;;;7409975;19;20364;-88
2022/05/26 11:24:15;;;;;;;3.40;1.40;;;21.20;99.90;;;;;;7415147;19;20423;-89
2022/05/26 11:26:45;;;;;;;2.20;1.20;;;20.90;99.90;;;;;;7411476;19;20415;-83
2022/05/26 11:29:28;;;;;;;2.88;1.40;;;20.70;99.90;;;;;;7416482;19;20424;-87
2022/05/26 11:38:15;;;;;;;1.42;1.30;;;20.20;99.90;;;;;;7413691;19;20956;-88
2022/05/26 11:40:47;;;;;;;1.30;1.20;;;20.00;99.90;;;;;;7406802;19;20389;-88
2022/05/26 11:43:25;;;;;;;1.40;1.30;;;20.10;99.90;;;;;;7409232;19;20344;-85
2022/05/26 11:45:52;;;;;;;2.00;1.20;;;20.20;99.90;;;;;;7406952;19;20360;-86
2022/05/26 11:48:33;;;;;;;1.27;1.17;;;20.10;99.90;;;;;;7411766;19;20345;-86
2022/05/26 11:51:46;;;;;;;4.85;1.45;;;20.20;99.90;;;;;;7408300;19;20824;-82
2022/05/26 11:54:50;;;;;;;1.37;1.27;;;20.70;99.90;;;;;;7412387;19;20341;-89
2022/05/26 11:57:41;;;;;;;1.27;1.17;;;21.00;99.90;;;;;;7411628;19;20341;-86
2022/05/26 12:00:16;;;;;;;1.38;1.27;;;21.40;99.90;;;;;;7415798;19;20367;-84
2022/05/26 12:02:42;;;;;;;1.70;1.40;;;22.30;99.90;;;;;;7409574;19;20356;-85
2022/05/26 12:05:41;;;;;;;1.08;1.08;;;22.40;99.90;;;;;;7410699;19;20412;-83
2022/05/26 12:08:23;;;;;;;2.90;1.37;;;22.10;99.90;;;;;;7413179;19;20376;-85
2022/05/26 12:10:54;;;;;;;3.90;1.20;;;22.00;99.90;;;;;;7406394;19;20340;-83
2022/05/26 12:13:22;;;;;;;1.45;1.33;;;22.00;99.90;;;;;;7411679;19;20368;-85
2022/05/26 12:16:09;;;;;;;1.30;1.20;;;22.00;99.90;;;;;;7410204;19;20356;-86
2022/05/26 12:18:46;;;;;;;3.40;1.13;;;21.90;99.90;;;;;;7417111;19;20365;-87
2022/05/26 12:21:36;;;;;;;1.10;1.10;;;21.60;99.90;;;;;;7409872;19;20359;-88
2022/05/26 12:24:34;;;;;;;1.35;1.25;;;21.20;99.90;;;;;;7410899;19;20412;-85
2022/05/26 12:27:00;;;;;;;1.30;1.20;;;21.00;99.90;;;;;;7408262;19;20332;-87
2022/05/26 12:29:47;;;;;;;1.40;1.20;;;21.00;99.90;;;;;;7413829;19;20356;-87
2022/05/26 12:32:18;;;;;;;1.88;1.10;;;21.00;99.90;;;;;;7401797;19;20384;-85
2022/05/26 12:34:55;;;;;;;3.58;1.33;;;21.40;99.90;;;;;;7411474;19;20361;-87
2022/05/26 12:37:39;;;;;;;1.40;1.30;;;22.30;99.90;;;;;;7406085;19;20435;-82
2022/05/26 12:40:50;;;;;;;2.20;1.30;;;22.60;99.90;;;;;;7412448;19;21564;-88
2022/05/26 12:43:35;;;;;;;2.30;1.20;;;22.80;99.90;;;;;;7409021;19;20364;-83
2022/05/26 12:46:25;;;;;;;1.20;1.10;;;22.60;99.90;;;;;;7407473;19;20360;-84
2022/05/26 12:49:04;;;;;;;0.93;0.90;;;23.10;99.90;;;;;;7414112;19;20375;-89
2022/05/26 12:51:34;;;;;;;1.70;1.40;;;23.20;99.90;;;;;;7405781;19;20349;-85
2022/05/26 12:54:00;;;;;;;1.00;1.00;;;23.20;99.90;;;;;;7409872;19;20367;-85
2022/05/26 12:56:38;;;;;;;1.17;1.10;;;23.60;99.90;;;;;;7404442;19;20337;-86
2022/05/26 12:59:03;;;;;;;1.20;1.10;;;23.60;99.90;;;;;;7410675;19;20401;-83
2022/05/26 13:01:30;;;;;;;1.33;1.23;;;23.70;99.90;;;;;;7399464;19;20352;-86
2022/05/26 13:04:13;;;;;;;2.72;1.30;;;23.20;99.60;;;;;;7411436;19;20400;-86
2022/05/26 13:06:41;;;;;;;2.35;1.30;;;22.80;99.10;;;;;;7404438;19;20355;-87
2022/05/26 13:09:22;;;;;;;1.40;1.25;;;22.50;99.50;;;;;;7410911;19;20352;-88
2022/05/26 13:11:52;;;;;;;1.05;1.05;;;21.90;99.80;;;;;;7401474;19;20348;-84
2022/05/26 13:14:31;;;;;;;1.20;1.10;;;21.70;99.90;;;;;;7410360;19;20352;-84
2022/05/26 13:17:24;;;;;;;1.40;1.30;;;21.40;99.90;;;;;;7408005;19;20345;-85
2022/05/26 13:19:54;;;;;;;1.97;1.30;;;21.30;99.90;;;;;;7409938;19;20369;-86
2022/05/26 13:22:32;;;;;;;1.93;1.33;;;20.70;99.90;;;;;;7402672;19;20368;-87
2022/05/26 13:25:04;;;;;;;1.92;1.23;;;21.00;99.90;;;;;;7412278;19;20356;-88
2022/05/26 13:27:42;;;;;;;1.33;1.10;;;20.90;99.90;;;;;;7402720;19;20408;-84
2022/05/26 13:33:11;;;;;;;2.00;1.08;;;21.00;99.90;;;;;;7403592;19;20421;-82
2022/05/26 13:35:52;;;;;;;1.67;1.27;;;21.00;99.90;;;;;;7405629;19;20369;-85
2022/05/26 13:38:32;;;;;;;3.60;1.40;;;21.10;99.90;;;;;;7410037;19;21861;-85
2022/05/26 13:40:58;;;;;;;2.05;1.23;;;21.10;99.90;;;;;;7402673;19;20352;-82
2022/05/26 13:43:24;;;;;;;1.30;1.10;;;21.20;99.90;;;;;;7408518;19;20395;-85
2022/05/26 13:45:50;;;;;;;1.40;1.30;;;21.00;99.90;;;;;;7404532;19;20364;-90
2022/05/26 13:48:35;;;;;;;1.50;1.40;;;21.00;99.90;;;;;;7411305;19;20356;-87
2022/05/26 13:51:13;;;;;;;2.15;1.20;;;21.20;99.90;;;;;;7406017;19;20360;-85
2022/05/26 13:53:40;;;;;;;1.30;1.20;;;21.80;99.90;;;;;;7406501;19;20357;-82